GLO1006 SBSP-SBRJ
Flight info
| Callsign | GLO1006 |
|---|---|
| Flight time | 0h 38m |
| Altitude | 25000 |
| Route | NIBRU UZ171 KEVUN |
| Aircraft | B738/M-SDE2E3FGHIRWXY/LB1 |
Departure
| Time | 2026-04-30 13:12 |
|---|---|
| Airport | Congonhas–Deputado Freitas Nobre Airport (SBSP) |
Arrival
| Time | 2026-04-30 13:50 |
|---|---|
| Airport | Santos Dumont Airport (SBRJ) |
| Time | Latitude | Longitude | Altitude | Speed | Heading |
|---|---|---|---|---|---|
| 2026-04-30 12:45 | -23.62720 | -46.65817 | 2600 ft | 0 kts | 237° |
| 2026-04-30 13:03 | -23.62715 | -46.65809 | 2600 ft | 4 kts | 237° |
| 2026-04-30 13:03 | -23.62699 | -46.65788 | 2600 ft | 4 kts | 203° |
| 2026-04-30 13:03 | -23.62682 | -46.65789 | 2600 ft | 4 kts | 147° |
| 2026-04-30 13:03 | -23.62667 | -46.65800 | 2600 ft | 0 kts | 148° |
| 2026-04-30 13:08 | -23.62668 | -46.65799 | 2600 ft | 1 kts | 148° |
| 2026-04-30 13:08 | -23.62717 | -46.65766 | 2600 ft | 16 kts | 147° |
| 2026-04-30 13:09 | -23.62830 | -46.65681 | 2600 ft | 20 kts | 131° |
| 2026-04-30 13:09 | -23.62926 | -46.65571 | 2602 ft | 20 kts | 146° |
| 2026-04-30 13:09 | -23.63050 | -46.65512 | 2602 ft | 19 kts | 163° |
| 2026-04-30 13:09 | -23.63165 | -46.65444 | 2601 ft | 19 kts | 145° |
| 2026-04-30 13:10 | -23.63272 | -46.65368 | 2601 ft | 18 kts | 148° |
| 2026-04-30 13:10 | -23.63375 | -46.65298 | 2601 ft | 17 kts | 148° |
| 2026-04-30 13:10 | -23.63469 | -46.65235 | 2600 ft | 14 kts | 148° |
| 2026-04-30 13:10 | -23.63486 | -46.65149 | 2591 ft | 14 kts | 44° |
| 2026-04-30 13:11 | -23.63413 | -46.65133 | 2601 ft | 0 kts | 330° |
| 2026-04-30 13:11 | -23.63366 | -46.65162 | 2605 ft | 36 kts | 329° |
| 2026-04-30 13:12 | -23.62919 | -46.65473 | 2607 ft | 115 kts | 327° |
| 2026-04-30 13:12 | -23.62041 | -46.66067 | 2669 ft | 174 kts | 328° |
| 2026-04-30 13:12 | -23.60976 | -46.66768 | 3387 ft | 186 kts | 330° |
| 2026-04-30 13:13 | -23.58561 | -46.67141 | 4660 ft | 195 kts | 36° |
| 2026-04-30 13:13 | -23.57796 | -46.65922 | 4970 ft | 200 kts | 77° |
| 2026-04-30 13:13 | -23.58496 | -46.63121 | 5477 ft | 199 kts | 127° |
| 2026-04-30 13:14 | -23.59336 | -46.61893 | 5489 ft | 202 kts | 128° |
| 2026-04-30 13:14 | -23.60189 | -46.60598 | 5510 ft | 229 kts | 116° |
| 2026-04-30 13:14 | -23.61091 | -46.56744 | 5489 ft | 277 kts | 105° |
| 2026-04-30 13:15 | -23.61937 | -46.54895 | 5503 ft | 280 kts | 134° |
| 2026-04-30 13:15 | -23.64815 | -46.51918 | 7134 ft | 286 kts | 137° |
| 2026-04-30 13:15 | -23.66244 | -46.50424 | 8025 ft | 289 kts | 137° |
| 2026-04-30 13:16 | -23.67703 | -46.48885 | 8869 ft | 294 kts | 137° |
| 2026-04-30 13:16 | -23.69180 | -46.47320 | 9652 ft | 300 kts | 137° |
| 2026-04-30 13:16 | -23.70583 | -46.45589 | 10396 ft | 310 kts | 122° |
| 2026-04-30 13:17 | -23.71025 | -46.40642 | 10915 ft | 359 kts | 81° |
| 2026-04-30 13:17 | -23.70600 | -46.37915 | 11463 ft | 370 kts | 81° |
| 2026-04-30 13:17 | -23.69712 | -46.32330 | 12927 ft | 377 kts | 81° |
| 2026-04-30 13:18 | -23.69281 | -46.29473 | 13643 ft | 381 kts | 82° |
| 2026-04-30 13:18 | -23.68444 | -46.23709 | 14984 ft | 389 kts | 82° |
| 2026-04-30 13:18 | -23.68027 | -46.20796 | 15659 ft | 392 kts | 82° |
| 2026-04-30 13:19 | -23.67604 | -46.17840 | 16312 ft | 396 kts | 81° |
| 2026-04-30 13:19 | -23.67175 | -46.14841 | 16881 ft | 401 kts | 81° |
| 2026-04-30 13:19 | -23.66745 | -46.11850 | 17500 ft | 403 kts | 81° |
| 2026-04-30 13:19 | -23.66308 | -46.08810 | 18113 ft | 406 kts | 81° |
| 2026-04-30 13:20 | -23.65866 | -46.05735 | 18671 ft | 410 kts | 81° |
| 2026-04-30 13:20 | -23.65421 | -46.02639 | 19157 ft | 416 kts | 81° |
| 2026-04-30 13:20 | -23.64972 | -45.99524 | 19598 ft | 421 kts | 81° |
| 2026-04-30 13:20 | -23.64511 | -45.96329 | 20080 ft | 426 kts | 81° |
| 2026-04-30 13:21 | -23.64051 | -45.93141 | 20523 ft | 431 kts | 80° |
| 2026-04-30 13:21 | -23.63580 | -45.89885 | 20982 ft | 435 kts | 80° |
| 2026-04-30 13:21 | -23.63103 | -45.86591 | 21407 ft | 440 kts | 80° |
| 2026-04-30 13:22 | -23.62140 | -45.79960 | 22194 ft | 449 kts | 80° |
| 2026-04-30 13:22 | -23.61647 | -45.76569 | 22597 ft | 453 kts | 79° |
| 2026-04-30 13:22 | -23.60650 | -45.69735 | 23408 ft | 460 kts | 79° |
| 2026-04-30 13:23 | -23.60143 | -45.66267 | 23787 ft | 464 kts | 79° |
| 2026-04-30 13:23 | -23.59118 | -45.59269 | 24528 ft | 470 kts | 79° |
| 2026-04-30 13:24 | -23.58082 | -45.52208 | 25142 ft | 477 kts | 79° |
| 2026-04-30 13:24 | -23.56979 | -45.45001 | 25148 ft | 490 kts | 77° |
| 2026-04-30 13:25 | -23.55452 | -45.37650 | 25133 ft | 498 kts | 74° |
| 2026-04-30 13:25 | -23.53837 | -45.30408 | 25123 ft | 491 kts | 74° |
| 2026-04-30 13:26 | -23.51497 | -45.19557 | 25162 ft | 492 kts | 75° |
| 2026-04-30 13:26 | -23.49948 | -45.12268 | 25145 ft | 495 kts | 75° |
| 2026-04-30 13:27 | -23.48382 | -45.04923 | 25137 ft | 496 kts | 75° |
| 2026-04-30 13:28 | -23.46037 | -44.93984 | 25130 ft | 494 kts | 74° |
| 2026-04-30 13:28 | -23.44474 | -44.86887 | 24523 ft | 474 kts | 74° |
| 2026-04-30 13:28 | -23.43693 | -44.83393 | 23974 ft | 470 kts | 74° |
| 2026-04-30 13:29 | -23.42164 | -44.76555 | 22875 ft | 461 kts | 74° |
| 2026-04-30 13:29 | -23.40663 | -44.69833 | 21782 ft | 453 kts | 74° |
| 2026-04-30 13:30 | -23.38467 | -44.60003 | 20150 ft | 440 kts | 75° |
| 2026-04-30 13:31 | -23.37033 | -44.53598 | 19072 ft | 431 kts | 75° |
| 2026-04-30 13:31 | -23.34924 | -44.44204 | 17483 ft | 418 kts | 75° |
| 2026-04-30 13:32 | -23.33035 | -44.38338 | 16512 ft | 407 kts | 63° |
| 2026-04-30 13:32 | -23.30569 | -44.32885 | 15488 ft | 400 kts | 63° |
| 2026-04-30 13:33 | -23.28160 | -44.27484 | 14461 ft | 394 kts | 64° |
| 2026-04-30 13:33 | -23.25830 | -44.22111 | 13433 ft | 388 kts | 64° |
| 2026-04-30 13:34 | -23.24700 | -44.19489 | 12933 ft | 385 kts | 64° |
| 2026-04-30 13:34 | -23.21330 | -44.11664 | 11433 ft | 376 kts | 64° |
| 2026-04-30 13:35 | -23.20222 | -44.09097 | 11126 ft | 368 kts | 64° |
| 2026-04-30 13:35 | -23.18053 | -44.04283 | 10735 ft | 347 kts | 63° |
| 2026-04-30 13:36 | -23.15941 | -43.99726 | 10376 ft | 328 kts | 63° |
| 2026-04-30 13:36 | -23.14955 | -43.97508 | 10185 ft | 320 kts | 64° |
| 2026-04-30 13:36 | -23.13153 | -43.93271 | 10035 ft | 298 kts | 65° |
| 2026-04-30 13:37 | -23.12286 | -43.91226 | 9746 ft | 296 kts | 64° |
| 2026-04-30 13:37 | -23.10597 | -43.87261 | 9411 ft | 286 kts | 64° |
| 2026-04-30 13:38 | -23.08932 | -43.83369 | 9108 ft | 284 kts | 64° |
| 2026-04-30 13:38 | -23.08105 | -43.81424 | 8943 ft | 282 kts | 64° |
| 2026-04-30 13:38 | -23.06457 | -43.77584 | 8641 ft | 280 kts | 64° |
| 2026-04-30 13:39 | -23.04807 | -43.73743 | 8347 ft | 279 kts | 64° |
| 2026-04-30 13:39 | -23.03174 | -43.69941 | 8030 ft | 279 kts | 64° |
| 2026-04-30 13:40 | -23.02334 | -43.68009 | 7760 ft | 283 kts | 64° |
| 2026-04-30 13:40 | -23.01486 | -43.66071 | 7486 ft | 283 kts | 64° |
| 2026-04-30 13:40 | -23.00653 | -43.64170 | 7238 ft | 280 kts | 64° |
| 2026-04-30 13:40 | -22.99822 | -43.62274 | 7046 ft | 275 kts | 64° |
| 2026-04-30 13:41 | -22.98996 | -43.60398 | 6870 ft | 273 kts | 64° |
| 2026-04-30 13:41 | -22.98188 | -43.58561 | 6649 ft | 272 kts | 64° |
| 2026-04-30 13:41 | -22.97377 | -43.56710 | 6483 ft | 269 kts | 64° |
| 2026-04-30 13:41 | -22.96569 | -43.54871 | 6318 ft | 268 kts | 64° |
| 2026-04-30 13:42 | -22.95775 | -43.53071 | 6163 ft | 266 kts | 63° |
| 2026-04-30 13:42 | -22.94975 | -43.51257 | 6001 ft | 265 kts | 64° |
| 2026-04-30 13:42 | -22.93402 | -43.47562 | 5423 ft | 271 kts | 64° |
| 2026-04-30 13:43 | -22.92627 | -43.45727 | 5122 ft | 270 kts | 64° |
| 2026-04-30 13:43 | -22.91841 | -43.43869 | 4842 ft | 269 kts | 65° |
| 2026-04-30 13:43 | -22.91060 | -43.42019 | 4585 ft | 267 kts | 65° |
| 2026-04-30 13:43 | -22.90296 | -43.40218 | 4386 ft | 261 kts | 64° |
| 2026-04-30 13:44 | -22.89559 | -43.38480 | 4311 ft | 245 kts | 65° |
| 2026-04-30 13:44 | -22.88874 | -43.36869 | 4203 ft | 230 kts | 64° |
| 2026-04-30 13:44 | -22.88301 | -43.35308 | 4095 ft | 216 kts | 80° |
| 2026-04-30 13:44 | -22.88306 | -43.33735 | 4004 ft | 201 kts | 93° |
| 2026-04-30 13:45 | -22.88418 | -43.30865 | 3739 ft | 182 kts | 92° |
| 2026-04-30 13:45 | -22.88463 | -43.29514 | 3479 ft | 181 kts | 92° |
| 2026-04-30 13:45 | -22.88511 | -43.28154 | 3191 ft | 179 kts | 92° |
| 2026-04-30 13:46 | -22.88555 | -43.26803 | 2900 ft | 178 kts | 93° |
| 2026-04-30 13:46 | -22.88834 | -43.25548 | 2618 ft | 168 kts | 114° |
| 2026-04-30 13:46 | -22.89282 | -43.24405 | 2343 ft | 157 kts | 113° |
| 2026-04-30 13:46 | -22.89679 | -43.23358 | 2162 ft | 150 kts | 113° |
| 2026-04-30 13:47 | -22.90071 | -43.22304 | 1960 ft | 146 kts | 113° |
| 2026-04-30 13:47 | -22.90479 | -43.21325 | 1766 ft | 143 kts | 118° |
| 2026-04-30 13:47 | -22.90833 | -43.20708 | 1657 ft | 142 kts | 129° |
| 2026-04-30 13:47 | -22.91839 | -43.19816 | 1431 ft | 141 kts | 152° |
| 2026-04-30 13:48 | -22.92443 | -43.19547 | 1322 ft | 144 kts | 161° |
| 2026-04-30 13:48 | -22.93806 | -43.19309 | 1039 ft | 150 kts | 163° |
| 2026-04-30 13:48 | -22.94579 | -43.18626 | 853 ft | 143 kts | 115° |
| 2026-04-30 13:48 | -22.94731 | -43.17949 | 765 ft | 138 kts | 88° |
| 2026-04-30 13:49 | -22.94520 | -43.16963 | 588 ft | 134 kts | 59° |
| 2026-04-30 13:49 | -22.93863 | -43.16298 | 435 ft | 128 kts | 27° |
| 2026-04-30 13:49 | -22.93018 | -43.16141 | 296 ft | 124 kts | 358° |
| 2026-04-30 13:49 | -22.92145 | -43.16214 | 125 ft | 125 kts | 357° |
| 2026-04-30 13:50 | -22.91300 | -43.16269 | 24 ft | 111 kts | 356° |
| 2026-04-30 13:50 | -22.90852 | -43.16295 | 26 ft | 19 kts | 354° |
| 2026-04-30 13:50 | -22.90805 | -43.16347 | 27 ft | 10 kts | 267° |
| 2026-04-30 13:51 | -22.90809 | -43.16419 | 28 ft | 9 kts | 266° |
| 2026-04-30 13:51 | -22.90813 | -43.16488 | 29 ft | 9 kts | 266° |
| 2026-04-30 13:51 | -22.90819 | -43.16555 | 29 ft | 9 kts | 268° |
| 2026-04-30 13:51 | -22.90821 | -43.16617 | 29 ft | 0 kts | 267° |